sensor_id;sensor_type;location;lat;lon;timestamp;P1;durP1;ratioP1;P2;durP2;ratioP2
34876;SDS011;21086;44.780;17.194;2023-06-10T00:02:25;11.38;;;4.45;;
34876;SDS011;21086;44.780;17.194;2023-06-10T00:04:53;7.22;;;4.95;;
34876;SDS011;21086;44.780;17.194;2023-06-10T00:07:20;11.20;;;4.70;;
34876;SDS011;21086;44.780;17.194;2023-06-10T00:09:47;6.78;;;4.70;;
34876;SDS011;21086;44.780;17.194;2023-06-10T00:12:14;6.35;;;4.38;;
34876;SDS011;21086;44.780;17.194;2023-06-10T00:14:43;10.45;;;6.50;;
34876;SDS011;21086;44.780;17.194;2023-06-10T00:17:10;8.63;;;6.20;;
34876;SDS011;21086;44.780;17.194;2023-06-10T00:19:37;9.10;;;7.05;;
34876;SDS011;21086;44.780;17.194;2023-06-10T00:22:08;14.07;;;7.07;;
34876;SDS011;21086;44.780;17.194;2023-06-10T00:24:37;9.80;;;7.90;;
34876;SDS011;21086;44.780;17.194;2023-06-10T00:27:05;12.00;;;8.40;;
34876;SDS011;21086;44.780;17.194;2023-06-10T00:29:34;8.70;;;5.53;;
34876;SDS011;21086;44.780;17.194;2023-06-10T00:32:01;8.40;;;6.63;;
34876;SDS011;21086;44.780;17.194;2023-06-10T00:34:29;15.45;;;8.98;;
34876;SDS011;21086;44.780;17.194;2023-06-10T00:36:57;12.88;;;9.00;;
34876;SDS011;21086;44.780;17.194;2023-06-10T00:39:24;13.00;;;9.30;;
34876;SDS011;21086;44.780;17.194;2023-06-10T00:41:51;10.75;;;7.70;;
34876;SDS011;21086;44.780;17.194;2023-06-10T00:44:19;7.72;;;5.47;;
34876;SDS011;21086;44.780;17.194;2023-06-10T00:46:46;9.77;;;5.53;;
34876;SDS011;21086;44.780;17.194;2023-06-10T00:49:13;7.10;;;3.58;;
34876;SDS011;21086;44.780;17.194;2023-06-10T00:51:40;5.72;;;3.55;;
34876;SDS011;21086;44.780;17.194;2023-06-10T00:54:07;4.82;;;3.15;;
34876;SDS011;21086;44.780;17.194;2023-06-10T00:56:35;11.25;;;3.92;;
34876;SDS011;21086;44.780;17.194;2023-06-10T00:59:03;5.40;;;3.00;;
34876;SDS011;21086;44.780;17.194;2023-06-10T01:01:30;4.60;;;3.03;;
34876;SDS011;21086;44.780;17.194;2023-06-10T01:03:59;4.50;;;2.45;;
34876;SDS011;21086;44.780;17.194;2023-06-10T01:09:18;4.20;;;2.25;;
34876;SDS011;21086;44.780;17.194;2023-06-10T01:11:44;3.90;;;2.47;;
34876;SDS011;21086;44.780;17.194;2023-06-10T01:14:14;4.32;;;2.30;;
34876;SDS011;21086;44.780;17.194;2023-06-10T01:16:43;3.15;;;2.38;;
34876;SDS011;21086;44.780;17.194;2023-06-10T01:19:12;3.05;;;2.35;;
34876;SDS011;21086;44.780;17.194;2023-06-10T01:21:40;2.72;;;2.03;;
34876;SDS011;21086;44.780;17.194;2023-06-10T01:24:08;2.83;;;2.20;;
34876;SDS011;21086;44.780;17.194;2023-06-10T01:26:37;4.70;;;2.30;;
34876;SDS011;21086;44.780;17.194;2023-06-10T01:29:09;3.45;;;2.03;;
34876;SDS011;21086;44.780;17.194;2023-06-10T01:34:23;4.45;;;2.38;;
34876;SDS011;21086;44.780;17.194;2023-06-10T01:36:51;4.55;;;2.33;;
34876;SDS011;21086;44.780;17.194;2023-06-10T01:39:21;3.08;;;2.30;;
34876;SDS011;21086;44.780;17.194;2023-06-10T01:41:50;4.57;;;2.55;;
34876;SDS011;21086;44.780;17.194;2023-06-10T01:44:20;4.65;;;2.25;;
34876;SDS011;21086;44.780;17.194;2023-06-10T01:46:48;4.63;;;2.30;;
34876;SDS011;21086;44.780;17.194;2023-06-10T01:49:15;3.70;;;2.17;;
34876;SDS011;21086;44.780;17.194;2023-06-10T01:51:42;3.22;;;2.10;;
34876;SDS011;21086;44.780;17.194;2023-06-10T01:54:10;4.70;;;2.67;;
34876;SDS011;21086;44.780;17.194;2023-06-10T01:56:37;4.82;;;2.83;;
34876;SDS011;21086;44.780;17.194;2023-06-10T01:59:04;3.03;;;2.20;;
34876;SDS011;21086;44.780;17.194;2023-06-10T02:01:31;5.10;;;2.10;;
34876;SDS011;21086;44.780;17.194;2023-06-10T02:03:58;3.10;;;2.03;;
34876;SDS011;21086;44.780;17.194;2023-06-10T02:06:25;4.82;;;2.58;;
34876;SDS011;21086;44.780;17.194;2023-06-10T02:08:52;2.13;;;1.83;;
34876;SDS011;21086;44.780;17.194;2023-06-10T02:11:20;4.25;;;2.35;;
34876;SDS011;21086;44.780;17.194;2023-06-10T02:13:47;5.10;;;2.35;;
34876;SDS011;21086;44.780;17.194;2023-06-10T02:16:14;4.22;;;2.22;;
34876;SDS011;21086;44.780;17.194;2023-06-10T02:18:43;5.40;;;2.30;;
34876;SDS011;21086;44.780;17.194;2023-06-10T02:21:10;3.55;;;2.10;;
34876;SDS011;21086;44.780;17.194;2023-06-10T02:23:37;2.55;;;1.77;;
34876;SDS011;21086;44.780;17.194;2023-06-10T02:26:04;4.68;;;1.98;;
34876;SDS011;21086;44.780;17.194;2023-06-10T02:28:32;2.58;;;1.95;;
34876;SDS011;21086;44.780;17.194;2023-06-10T02:30:59;6.70;;;2.33;;
34876;SDS011;21086;44.780;17.194;2023-06-10T02:33:27;3.20;;;2.25;;
34876;SDS011;21086;44.780;17.194;2023-06-10T02:35:55;3.78;;;2.58;;
34876;SDS011;21086;44.780;17.194;2023-06-10T02:38:22;4.70;;;2.92;;
34876;SDS011;21086;44.780;17.194;2023-06-10T02:40:49;6.65;;;2.47;;
34876;SDS011;21086;44.780;17.194;2023-06-10T02:43:16;6.38;;;2.72;;
34876;SDS011;21086;44.780;17.194;2023-06-10T02:45:43;3.97;;;2.70;;
34876;SDS011;21086;44.780;17.194;2023-06-10T02:48:10;3.47;;;2.40;;
34876;SDS011;21086;44.780;17.194;2023-06-10T02:50:37;4.45;;;2.20;;
34876;SDS011;21086;44.780;17.194;2023-06-10T02:53:06;3.78;;;2.63;;
34876;SDS011;21086;44.780;17.194;2023-06-10T02:55:34;5.22;;;2.30;;
34876;SDS011;21086;44.780;17.194;2023-06-10T02:58:01;3.25;;;2.40;;
34876;SDS011;21086;44.780;17.194;2023-06-10T03:00:29;8.68;;;2.90;;
34876;SDS011;21086;44.780;17.194;2023-06-10T03:02:57;3.10;;;2.33;;
34876;SDS011;21086;44.780;17.194;2023-06-10T03:05:25;4.75;;;2.58;;
34876;SDS011;21086;44.780;17.194;2023-06-10T03:07:52;7.32;;;2.80;;
34876;SDS011;21086;44.780;17.194;2023-06-10T03:10:19;4.07;;;2.00;;
34876;SDS011;21086;44.780;17.194;2023-06-10T03:12:46;4.10;;;2.05;;
34876;SDS011;21086;44.780;17.194;2023-06-10T03:15:13;4.80;;;2.00;;
34876;SDS011;21086;44.780;17.194;2023-06-10T03:17:42;3.20;;;2.20;;
34876;SDS011;21086;44.780;17.194;2023-06-10T03:20:09;4.10;;;1.80;;
34876;SDS011;21086;44.780;17.194;2023-06-10T03:22:37;4.90;;;2.47;;
34876;SDS011;21086;44.780;17.194;2023-06-10T03:25:07;6.18;;;1.77;;
34876;SDS011;21086;44.780;17.194;2023-06-10T03:27:39;4.25;;;2.30;;
34876;SDS011;21086;44.780;17.194;2023-06-10T03:30:08;2.90;;;2.05;;
34876;SDS011;21086;44.780;17.194;2023-06-10T03:32:36;2.35;;;1.80;;
34876;SDS011;21086;44.780;17.194;2023-06-10T03:35:03;4.30;;;2.47;;
34876;SDS011;21086;44.780;17.194;2023-06-10T03:37:32;5.35;;;2.17;;
34876;SDS011;21086;44.780;17.194;2023-06-10T03:39:59;3.60;;;1.95;;
34876;SDS011;21086;44.780;17.194;2023-06-10T03:42:26;2.45;;;1.83;;
34876;SDS011;21086;44.780;17.194;2023-06-10T03:44:53;5.07;;;2.15;;
34876;SDS011;21086;44.780;17.194;2023-06-10T03:47:20;2.88;;;1.90;;
34876;SDS011;21086;44.780;17.194;2023-06-10T03:49:47;14.25;;;1.70;;
34876;SDS011;21086;44.780;17.194;2023-06-10T03:52:14;9.27;;;2.08;;
34876;SDS011;21086;44.780;17.194;2023-06-10T03:54:41;2.72;;;2.00;;
34876;SDS011;21086;44.780;17.194;2023-06-10T03:57:08;4.00;;;1.98;;
34876;SDS011;21086;44.780;17.194;2023-06-10T03:59:35;2.85;;;1.58;;
34876;SDS011;21086;44.780;17.194;2023-06-10T04:02:03;3.95;;;1.98;;
34876;SDS011;21086;44.780;17.194;2023-06-10T04:04:31;6.20;;;2.03;;
34876;SDS011;21086;44.780;17.194;2023-06-10T04:06:58;3.97;;;1.80;;
34876;SDS011;21086;44.780;17.194;2023-06-10T04:09:25;5.20;;;1.83;;
34876;SDS011;21086;44.780;17.194;2023-06-10T04:11:52;3.50;;;1.50;;
34876;SDS011;21086;44.780;17.194;2023-06-10T04:14:19;2.00;;;1.63;;
34876;SDS011;21086;44.780;17.194;2023-06-10T04:16:46;6.00;;;3.03;;
34876;SDS011;21086;44.780;17.194;2023-06-10T04:19:13;3.60;;;2.05;;
34876;SDS011;21086;44.780;17.194;2023-06-10T04:21:41;4.35;;;1.67;;
34876;SDS011;21086;44.780;17.194;2023-06-10T04:24:08;3.63;;;1.90;;
34876;SDS011;21086;44.780;17.194;2023-06-10T04:26:35;5.18;;;1.80;;
34876;SDS011;21086;44.780;17.194;2023-06-10T04:29:03;5.38;;;2.00;;
34876;SDS011;21086;44.780;17.194;2023-06-10T04:31:30;2.88;;;1.80;;
34876;SDS011;21086;44.780;17.194;2023-06-10T04:33:59;2.63;;;1.88;;
34876;SDS011;21086;44.780;17.194;2023-06-10T04:36:27;2.55;;;1.80;;
34876;SDS011;21086;44.780;17.194;2023-06-10T04:38:56;4.40;;;2.00;;
34876;SDS011;21086;44.780;17.194;2023-06-10T04:41:23;1.92;;;1.63;;
34876;SDS011;21086;44.780;17.194;2023-06-10T04:43:50;2.33;;;1.85;;
34876;SDS011;21086;44.780;17.194;2023-06-10T04:46:17;3.55;;;1.80;;
34876;SDS011;21086;44.780;17.194;2023-06-10T04:48:44;4.18;;;1.40;;
34876;SDS011;21086;44.780;17.194;2023-06-10T04:51:13;8.30;;;3.00;;
34876;SDS011;21086;44.780;17.194;2023-06-10T04:53:40;3.22;;;1.83;;
34876;SDS011;21086;44.780;17.194;2023-06-10T04:56:07;7.85;;;1.90;;
34876;SDS011;21086;44.780;17.194;2023-06-10T04:58:34;5.00;;;1.73;;
34876;SDS011;21086;44.780;17.194;2023-06-10T05:01:02;2.08;;;1.67;;
34876;SDS011;21086;44.780;17.194;2023-06-10T05:03:29;5.47;;;1.63;;
34876;SDS011;21086;44.780;17.194;2023-06-10T05:05:56;4.35;;;1.65;;
34876;SDS011;21086;44.780;17.194;2023-06-10T05:08:23;2.28;;;1.67;;
34876;SDS011;21086;44.780;17.194;2023-06-10T05:10:50;1.90;;;1.60;;
34876;SDS011;21086;44.780;17.194;2023-06-10T05:13:17;3.08;;;2.08;;
34876;SDS011;21086;44.780;17.194;2023-06-10T05:15:44;2.05;;;1.42;;
34876;SDS011;21086;44.780;17.194;2023-06-10T05:18:12;4.03;;;1.90;;
34876;SDS011;21086;44.780;17.194;2023-06-10T05:20:39;3.03;;;1.58;;
34876;SDS011;21086;44.780;17.194;2023-06-10T05:23:06;4.82;;;1.60;;
34876;SDS011;21086;44.780;17.194;2023-06-10T05:25:34;6.78;;;1.40;;
34876;SDS011;21086;44.780;17.194;2023-06-10T05:28:01;1.80;;;1.58;;
34876;SDS011;21086;44.780;17.194;2023-06-10T05:30:28;2.72;;;1.48;;
34876;SDS011;21086;44.780;17.194;2023-06-10T05:32:56;2.90;;;1.88;;
34876;SDS011;21086;44.780;17.194;2023-06-10T05:35:23;3.05;;;1.65;;
34876;SDS011;21086;44.780;17.194;2023-06-10T05:37:50;2.30;;;1.38;;
34876;SDS011;21086;44.780;17.194;2023-06-10T05:40:18;2.20;;;1.40;;
34876;SDS011;21086;44.780;17.194;2023-06-10T05:42:45;3.53;;;1.95;;
34876;SDS011;21086;44.780;17.194;2023-06-10T05:45:12;2.13;;;1.50;;
34876;SDS011;21086;44.780;17.194;2023-06-10T05:47:39;2.85;;;1.55;;
34876;SDS011;21086;44.780;17.194;2023-06-10T05:50:07;3.35;;;1.58;;
34876;SDS011;21086;44.780;17.194;2023-06-10T05:52:35;2.75;;;1.48;;
34876;SDS011;21086;44.780;17.194;2023-06-10T05:55:03;3.22;;;1.40;;
34876;SDS011;21086;44.780;17.194;2023-06-10T05:57:30;3.05;;;1.50;;
34876;SDS011;21086;44.780;17.194;2023-06-10T05:59:58;2.60;;;1.60;;
34876;SDS011;21086;44.780;17.194;2023-06-10T06:02:25;1.67;;;1.25;;
34876;SDS011;21086;44.780;17.194;2023-06-10T06:04:52;2.83;;;1.45;;
34876;SDS011;21086;44.780;17.194;2023-06-10T06:07:19;2.00;;;1.35;;
34876;SDS011;21086;44.780;17.194;2023-06-10T06:09:47;2.33;;;1.40;;
34876;SDS011;21086;44.780;17.194;2023-06-10T06:12:14;1.63;;;1.10;;
34876;SDS011;21086;44.780;17.194;2023-06-10T06:14:42;1.70;;;1.23;;
34876;SDS011;21086;44.780;17.194;2023-06-10T06:17:09;2.45;;;1.30;;
34876;SDS011;21086;44.780;17.194;2023-06-10T06:19:36;1.92;;;1.17;;
34876;SDS011;21086;44.780;17.194;2023-06-10T06:22:03;3.42;;;1.13;;
34876;SDS011;21086;44.780;17.194;2023-06-10T06:24:30;1.10;;;1.00;;
34876;SDS011;21086;44.780;17.194;2023-06-10T06:26:57;1.50;;;1.20;;
34876;SDS011;21086;44.780;17.194;2023-06-10T06:29:24;1.52;;;1.00;;
34876;SDS011;21086;44.780;17.194;2023-06-10T06:31:52;1.55;;;1.10;;
34876;SDS011;21086;44.780;17.194;2023-06-10T06:34:19;3.15;;;1.33;;
34876;SDS011;21086;44.780;17.194;2023-06-10T06:36:46;1.40;;;1.25;;
34876;SDS011;21086;44.780;17.194;2023-06-10T06:39:13;2.20;;;1.05;;
34876;SDS011;21086;44.780;17.194;2023-06-10T06:41:40;1.20;;;1.00;;
34876;SDS011;21086;44.780;17.194;2023-06-10T06:44:07;1.85;;;1.30;;
34876;SDS011;21086;44.780;17.194;2023-06-10T06:46:34;1.98;;;1.30;;
34876;SDS011;21086;44.780;17.194;2023-06-10T06:49:02;1.42;;;1.00;;
34876;SDS011;21086;44.780;17.194;2023-06-10T06:51:29;3.70;;;1.17;;
34876;SDS011;21086;44.780;17.194;2023-06-10T06:53:56;1.70;;;1.02;;
34876;SDS011;21086;44.780;17.194;2023-06-10T06:56:25;1.60;;;1.05;;
34876;SDS011;21086;44.780;17.194;2023-06-10T06:58:53;2.25;;;1.15;;
34876;SDS011;21086;44.780;17.194;2023-06-10T07:01:23;2.30;;;1.42;;
34876;SDS011;21086;44.780;17.194;2023-06-10T07:03:50;1.58;;;1.30;;
34876;SDS011;21086;44.780;17.194;2023-06-10T07:06:17;1.10;;;1.00;;
34876;SDS011;21086;44.780;17.194;2023-06-10T07:08:44;2.30;;;1.48;;
34876;SDS011;21086;44.780;17.194;2023-06-10T07:11:11;1.88;;;1.40;;
34876;SDS011;21086;44.780;17.194;2023-06-10T07:13:38;1.30;;;1.00;;
34876;SDS011;21086;44.780;17.194;2023-06-10T07:16:11;3.70;;;2.30;;
34876;SDS011;21086;44.780;17.194;2023-06-10T07:18:37;1.73;;;1.30;;
34876;SDS011;21086;44.780;17.194;2023-06-10T07:21:06;1.80;;;1.15;;
34876;SDS011;21086;44.780;17.194;2023-06-10T07:23:43;1.88;;;1.30;;
34876;SDS011;21086;44.780;17.194;2023-06-10T07:26:12;4.18;;;1.67;;
34876;SDS011;21086;44.780;17.194;2023-06-10T07:28:40;3.35;;;1.77;;
34876;SDS011;21086;44.780;17.194;2023-06-10T07:31:08;2.58;;;1.73;;
34876;SDS011;21086;44.780;17.194;2023-06-10T07:33:35;3.65;;;1.70;;
34876;SDS011;21086;44.780;17.194;2023-06-10T07:36:03;3.03;;;1.90;;
34876;SDS011;21086;44.780;17.194;2023-06-10T07:38:30;1.60;;;1.50;;
34876;SDS011;21086;44.780;17.194;2023-06-10T07:40:58;3.00;;;1.88;;
34876;SDS011;21086;44.780;17.194;2023-06-10T07:43:25;2.22;;;1.30;;
34876;SDS011;21086;44.780;17.194;2023-06-10T07:45:52;2.22;;;1.67;;
34876;SDS011;21086;44.780;17.194;2023-06-10T07:48:19;3.00;;;1.33;;
34876;SDS011;21086;44.780;17.194;2023-06-10T07:50:46;4.93;;;1.92;;
34876;SDS011;21086;44.780;17.194;2023-06-10T07:53:13;2.92;;;1.63;;
34876;SDS011;21086;44.780;17.194;2023-06-10T07:55:40;4.72;;;1.40;;
34876;SDS011;21086;44.780;17.194;2023-06-10T07:58:07;3.42;;;1.38;;
34876;SDS011;21086;44.780;17.194;2023-06-10T08:00:34;3.25;;;1.60;;
34876;SDS011;21086;44.780;17.194;2023-06-10T08:03:02;2.65;;;1.58;;
34876;SDS011;21086;44.780;17.194;2023-06-10T08:05:29;3.80;;;1.83;;
34876;SDS011;21086;44.780;17.194;2023-06-10T08:07:56;1.42;;;1.30;;
34876;SDS011;21086;44.780;17.194;2023-06-10T08:10:26;2.03;;;1.52;;
34876;SDS011;21086;44.780;17.194;2023-06-10T08:12:53;4.05;;;2.00;;
34876;SDS011;21086;44.780;17.194;2023-06-10T08:15:20;4.38;;;1.85;;
34876;SDS011;21086;44.780;17.194;2023-06-10T08:17:47;2.20;;;1.63;;
34876;SDS011;21086;44.780;17.194;2023-06-10T08:20:14;1.98;;;1.60;;
34876;SDS011;21086;44.780;17.194;2023-06-10T08:22:41;2.45;;;1.85;;
34876;SDS011;21086;44.780;17.194;2023-06-10T08:25:08;3.92;;;1.67;;
34876;SDS011;21086;44.780;17.194;2023-06-10T08:27:37;1.30;;;1.20;;
34876;SDS011;21086;44.780;17.194;2023-06-10T08:30:04;1.80;;;1.40;;
34876;SDS011;21086;44.780;17.194;2023-06-10T08:32:32;1.38;;;1.17;;
34876;SDS011;21086;44.780;17.194;2023-06-10T08:34:59;3.40;;;1.83;;
34876;SDS011;21086;44.780;17.194;2023-06-10T08:37:26;3.58;;;1.42;;
34876;SDS011;21086;44.780;17.194;2023-06-10T08:39:53;3.33;;;1.52;;
34876;SDS011;21086;44.780;17.194;2023-06-10T08:42:33;1.67;;;1.40;;
34876;SDS011;21086;44.780;17.194;2023-06-10T08:45:17;1.70;;;1.38;;
34876;SDS011;21086;44.780;17.194;2023-06-10T08:47:45;2.85;;;1.35;;
34876;SDS011;21086;44.780;17.194;2023-06-10T08:50:16;2.28;;;1.50;;
34876;SDS011;21086;44.780;17.194;2023-06-10T08:52:44;2.28;;;1.80;;
34876;SDS011;21086;44.780;17.194;2023-06-10T08:55:32;3.20;;;1.80;;
34876;SDS011;21086;44.780;17.194;2023-06-10T08:58:02;2.15;;;1.80;;
34876;SDS011;21086;44.780;17.194;2023-06-10T09:00:30;1.67;;;1.58;;
34876;SDS011;21086;44.780;17.194;2023-06-10T09:02:58;1.80;;;1.48;;
34876;SDS011;21086;44.780;17.194;2023-06-10T09:05:31;2.50;;;1.50;;
34876;SDS011;21086;44.780;17.194;2023-06-10T09:08:00;1.83;;;1.50;;
34876;SDS011;21086;44.780;17.194;2023-06-10T09:10:28;2.30;;;1.70;;
34876;SDS011;21086;44.780;17.194;2023-06-10T09:12:56;2.58;;;1.80;;
34876;SDS011;21086;44.780;17.194;2023-06-10T09:15:23;3.38;;;1.50;;
34876;SDS011;21086;44.780;17.194;2023-06-10T09:17:53;2.40;;;1.60;;
34876;SDS011;21086;44.780;17.194;2023-06-10T09:20:20;4.20;;;1.58;;
34876;SDS011;21086;44.780;17.194;2023-06-10T09:22:48;2.20;;;1.63;;
34876;SDS011;21086;44.780;17.194;2023-06-10T09:25:15;2.28;;;1.80;;
34876;SDS011;21086;44.780;17.194;2023-06-10T09:27:52;2.85;;;1.70;;
34876;SDS011;21086;44.780;17.194;2023-06-10T09:30:24;2.13;;;1.70;;
34876;SDS011;21086;44.780;17.194;2023-06-10T09:32:57;3.60;;;1.63;;
34876;SDS011;21086;44.780;17.194;2023-06-10T09:35:26;2.25;;;1.55;;
34876;SDS011;21086;44.780;17.194;2023-06-10T09:37:58;2.10;;;1.83;;
34876;SDS011;21086;44.780;17.194;2023-06-10T09:40:26;2.70;;;1.83;;
34876;SDS011;21086;44.780;17.194;2023-06-10T09:42:59;2.28;;;1.73;;
34876;SDS011;21086;44.780;17.194;2023-06-10T09:45:29;9.15;;;1.80;;
34876;SDS011;21086;44.780;17.194;2023-06-10T09:48:00;2.78;;;2.05;;
34876;SDS011;21086;44.780;17.194;2023-06-10T09:50:27;5.60;;;1.90;;
34876;SDS011;21086;44.780;17.194;2023-06-10T09:52:59;2.95;;;1.70;;
34876;SDS011;21086;44.780;17.194;2023-06-10T09:55:26;3.22;;;1.75;;
34876;SDS011;21086;44.780;17.194;2023-06-10T09:57:53;2.10;;;1.80;;
34876;SDS011;21086;44.780;17.194;2023-06-10T10:00:21;2.00;;;1.60;;
34876;SDS011;21086;44.780;17.194;2023-06-10T10:02:50;2.13;;;1.60;;
34876;SDS011;21086;44.780;17.194;2023-06-10T10:05:19;3.63;;;2.83;;
34876;SDS011;21086;44.780;17.194;2023-06-10T10:07:48;2.58;;;1.67;;
34876;SDS011;21086;44.780;17.194;2023-06-10T10:10:16;1.83;;;1.60;;
34876;SDS011;21086;44.780;17.194;2023-06-10T10:12:46;3.05;;;1.60;;
34876;SDS011;21086;44.780;17.194;2023-06-10T10:15:15;2.67;;;1.70;;
34876;SDS011;21086;44.780;17.194;2023-06-10T10:17:46;4.28;;;1.63;;
34876;SDS011;21086;44.780;17.194;2023-06-10T10:20:20;2.08;;;1.88;;
34876;SDS011;21086;44.780;17.194;2023-06-10T10:22:52;2.75;;;2.00;;
34876;SDS011;21086;44.780;17.194;2023-06-10T10:25:25;2.10;;;1.50;;
34876;SDS011;21086;44.780;17.194;2023-06-10T10:28:11;2.05;;;1.63;;
34876;SDS011;21086;44.780;17.194;2023-06-10T10:30:40;4.90;;;1.80;;
34876;SDS011;21086;44.780;17.194;2023-06-10T10:33:22;2.35;;;1.63;;
34876;SDS011;21086;44.780;17.194;2023-06-10T10:36:05;6.75;;;2.10;;
34876;SDS011;21086;44.780;17.194;2023-06-10T10:38:34;2.67;;;1.50;;
34876;SDS011;21086;44.780;17.194;2023-06-10T10:41:03;1.92;;;1.60;;
34876;SDS011;21086;44.780;17.194;2023-06-10T10:43:31;2.55;;;1.52;;
34876;SDS011;21086;44.780;17.194;2023-06-10T10:45:59;1.85;;;1.20;;
34876;SDS011;21086;44.780;17.194;2023-06-10T10:48:38;1.98;;;1.52;;
34876;SDS011;21086;44.780;17.194;2023-06-10T10:51:08;5.60;;;1.50;;
34876;SDS011;21086;44.780;17.194;2023-06-10T10:53:39;2.22;;;1.38;;
34876;SDS011;21086;44.780;17.194;2023-06-10T10:56:07;3.20;;;1.38;;
34876;SDS011;21086;44.780;17.194;2023-06-10T10:58:40;1.55;;;1.27;;
34876;SDS011;21086;44.780;17.194;2023-06-10T11:01:14;1.83;;;1.23;;
34876;SDS011;21086;44.780;17.194;2023-06-10T11:03:44;6.85;;;1.70;;
34876;SDS011;21086;44.780;17.194;2023-06-10T11:06:16;3.72;;;1.40;;
34876;SDS011;21086;44.780;17.194;2023-06-10T11:16:40;2.20;;;1.40;;
34876;SDS011;21086;44.780;17.194;2023-06-10T11:19:08;1.70;;;1.40;;
34876;SDS011;21086;44.780;17.194;2023-06-10T11:24:28;2.83;;;1.30;;
34876;SDS011;21086;44.780;17.194;2023-06-10T11:27:14;1.88;;;1.63;;
34876;SDS011;21086;44.780;17.194;2023-06-10T11:30:17;2.88;;;1.30;;
34876;SDS011;21086;44.780;17.194;2023-06-10T11:32:51;1.52;;;1.30;;
34876;SDS011;21086;44.780;17.194;2023-06-10T11:35:19;3.53;;;1.20;;
34876;SDS011;21086;44.780;17.194;2023-06-10T11:37:47;1.95;;;1.33;;
34876;SDS011;21086;44.780;17.194;2023-06-10T11:40:15;1.65;;;1.10;;
34876;SDS011;21086;44.780;17.194;2023-06-10T11:42:43;1.25;;;1.00;;
34876;SDS011;21086;44.780;17.194;2023-06-10T11:45:14;1.45;;;1.13;;
34876;SDS011;21086;44.780;17.194;2023-06-10T11:47:55;1.65;;;1.23;;
34876;SDS011;21086;44.780;17.194;2023-06-10T11:50:30;1.85;;;1.02;;
34876;SDS011;21086;44.780;17.194;2023-06-10T11:53:00;3.90;;;1.10;;
34876;SDS011;21086;44.780;17.194;2023-06-10T11:55:43;1.70;;;1.10;;
34876;SDS011;21086;44.780;17.194;2023-06-10T12:00:52;1.50;;;1.20;;
34876;SDS011;21086;44.780;17.194;2023-06-10T12:03:25;1.85;;;1.10;;
34876;SDS011;21086;44.780;17.194;2023-06-10T12:05:56;3.08;;;1.00;;
34876;SDS011;21086;44.780;17.194;2023-06-10T12:08:24;1.48;;;1.17;;
34876;SDS011;21086;44.780;17.194;2023-06-10T12:10:52;3.63;;;1.08;;
34876;SDS011;21086;44.780;17.194;2023-06-10T12:13:20;1.77;;;1.08;;
34876;SDS011;21086;44.780;17.194;2023-06-10T12:15:47;0.85;;;0.80;;
34876;SDS011;21086;44.780;17.194;2023-06-10T12:18:21;1.10;;;0.88;;
34876;SDS011;21086;44.780;17.194;2023-06-10T12:20:49;1.02;;;0.90;;
34876;SDS011;21086;44.780;17.194;2023-06-10T12:23:17;1.13;;;1.00;;
34876;SDS011;21086;44.780;17.194;2023-06-10T12:25:49;1.60;;;1.20;;
34876;SDS011;21086;44.780;17.194;2023-06-10T12:28:22;2.45;;;1.17;;
34876;SDS011;21086;44.780;17.194;2023-06-10T12:30:50;2.50;;;1.27;;
34876;SDS011;21086;44.780;17.194;2023-06-10T12:35:48;1.23;;;0.80;;
34876;SDS011;21086;44.780;17.194;2023-06-10T12:38:23;1.90;;;1.23;;
34876;SDS011;21086;44.780;17.194;2023-06-10T12:40:51;1.33;;;1.00;;
34876;SDS011;21086;44.780;17.194;2023-06-10T12:43:27;1.70;;;1.10;;
34876;SDS011;21086;44.780;17.194;2023-06-10T12:46:07;1.45;;;1.00;;
34876;SDS011;21086;44.780;17.194;2023-06-10T12:48:35;1.98;;;1.40;;
34876;SDS011;21086;44.780;17.194;2023-06-10T12:51:02;2.63;;;1.30;;
34876;SDS011;21086;44.780;17.194;2023-06-10T12:53:29;1.15;;;0.88;;
34876;SDS011;21086;44.780;17.194;2023-06-10T12:55:57;1.65;;;1.20;;
34876;SDS011;21086;44.780;17.194;2023-06-10T12:58:24;1.40;;;1.20;;
34876;SDS011;21086;44.780;17.194;2023-06-10T13:00:51;4.07;;;1.33;;
34876;SDS011;21086;44.780;17.194;2023-06-10T13:03:20;1.65;;;1.23;;
34876;SDS011;21086;44.780;17.194;2023-06-10T13:05:47;1.30;;;1.17;;
34876;SDS011;21086;44.780;17.194;2023-06-10T13:08:15;1.00;;;0.80;;
34876;SDS011;21086;44.780;17.194;2023-06-10T13:10:42;3.10;;;1.40;;
34876;SDS011;21086;44.780;17.194;2023-06-10T13:13:09;3.03;;;1.20;;
34876;SDS011;21086;44.780;17.194;2023-06-10T13:15:36;1.35;;;1.08;;
34876;SDS011;21086;44.780;17.194;2023-06-10T13:18:09;1.20;;;1.05;;
34876;SDS011;21086;44.780;17.194;2023-06-10T13:20:36;1.65;;;1.20;;
34876;SDS011;21086;44.780;17.194;2023-06-10T13:23:03;1.23;;;1.10;;
34876;SDS011;21086;44.780;17.194;2023-06-10T13:25:30;4.10;;;1.38;;
34876;SDS011;21086;44.780;17.194;2023-06-10T13:27:58;1.83;;;1.20;;
34876;SDS011;21086;44.780;17.194;2023-06-10T13:30:25;5.22;;;1.88;;
34876;SDS011;21086;44.780;17.194;2023-06-10T13:32:53;1.83;;;1.60;;
34876;SDS011;21086;44.780;17.194;2023-06-10T13:35:20;1.63;;;1.50;;
34876;SDS011;21086;44.780;17.194;2023-06-10T13:37:47;6.38;;;1.60;;
34876;SDS011;21086;44.780;17.194;2023-06-10T13:40:14;2.63;;;1.48;;
34876;SDS011;21086;44.780;17.194;2023-06-10T13:42:42;3.28;;;1.85;;
34876;SDS011;21086;44.780;17.194;2023-06-10T13:45:09;2.90;;;1.27;;
34876;SDS011;21086;44.780;17.194;2023-06-10T13:47:37;2.90;;;1.80;;
34876;SDS011;21086;44.780;17.194;2023-06-10T13:50:05;3.35;;;1.90;;
34876;SDS011;21086;44.780;17.194;2023-06-10T13:52:32;5.53;;;1.48;;
34876;SDS011;21086;44.780;17.194;2023-06-10T13:54:59;2.88;;;1.65;;
34876;SDS011;21086;44.780;17.194;2023-06-10T13:57:26;2.50;;;1.85;;
34876;SDS011;21086;44.780;17.194;2023-06-10T13:59:53;2.42;;;1.90;;
34876;SDS011;21086;44.780;17.194;2023-06-10T14:02:22;2.53;;;1.70;;
34876;SDS011;21086;44.780;17.194;2023-06-10T14:04:49;1.42;;;1.33;;
34876;SDS011;21086;44.780;17.194;2023-06-10T14:07:16;2.20;;;1.90;;
34876;SDS011;21086;44.780;17.194;2023-06-10T14:09:43;3.72;;;1.58;;
34876;SDS011;21086;44.780;17.194;2023-06-10T14:12:12;2.03;;;1.60;;
34876;SDS011;21086;44.780;17.194;2023-06-10T14:14:39;1.88;;;1.40;;
34876;SDS011;21086;44.780;17.194;2023-06-10T14:17:06;2.25;;;1.58;;
34876;SDS011;21086;44.780;17.194;2023-06-10T14:19:33;2.10;;;1.77;;
34876;SDS011;21086;44.780;17.194;2023-06-10T14:22:00;2.67;;;1.70;;
34876;SDS011;21086;44.780;17.194;2023-06-10T14:24:29;4.25;;;1.48;;
34876;SDS011;21086;44.780;17.194;2023-06-10T14:26:56;2.08;;;1.63;;
34876;SDS011;21086;44.780;17.194;2023-06-10T14:29:25;2.58;;;1.58;;
34876;SDS011;21086;44.780;17.194;2023-06-10T14:31:55;3.35;;;1.63;;
34876;SDS011;21086;44.780;17.194;2023-06-10T14:34:22;1.50;;;1.35;;
34876;SDS011;21086;44.780;17.194;2023-06-10T14:36:55;4.20;;;2.15;;
34876;SDS011;21086;44.780;17.194;2023-06-10T14:39:22;2.50;;;1.85;;
34876;SDS011;21086;44.780;17.194;2023-06-10T14:41:50;2.45;;;1.50;;
34876;SDS011;21086;44.780;17.194;2023-06-10T14:44:19;1.80;;;1.50;;
34876;SDS011;21086;44.780;17.194;2023-06-10T14:46:46;3.45;;;1.48;;
34876;SDS011;21086;44.780;17.194;2023-06-10T14:49:14;2.22;;;1.73;;
34876;SDS011;21086;44.780;17.194;2023-06-10T14:51:41;1.67;;;1.50;;
34876;SDS011;21086;44.780;17.194;2023-06-10T14:54:08;1.77;;;1.45;;
34876;SDS011;21086;44.780;17.194;2023-06-10T14:56:35;1.83;;;1.60;;
34876;SDS011;21086;44.780;17.194;2023-06-10T14:59:01;1.98;;;1.60;;
34876;SDS011;21086;44.780;17.194;2023-06-10T15:01:29;2.17;;;1.80;;
34876;SDS011;21086;44.780;17.194;2023-06-10T15:03:56;1.60;;;1.50;;